sensor_id;sensor_type;location;lat;lon;timestamp;pressure;altitude;pressure_sealevel;temperature;humidity
27705;BME280;15109;50.992;6.918;2022-08-18T00:00:40;100653.75;;;20.12;100.00
27705;BME280;15109;50.992;6.918;2022-08-18T00:04:01;100645.09;;;20.09;100.00
27705;BME280;15109;50.992;6.918;2022-08-18T00:07:26;100644.75;;;20.05;100.00
27705;BME280;15109;50.992;6.918;2022-08-18T00:10:48;100641.13;;;20.05;100.00
27705;BME280;15109;50.992;6.918;2022-08-18T00:14:13;100651.22;;;20.11;100.00
27705;BME280;15109;50.992;6.918;2022-08-18T00:17:35;100634.56;;;20.11;100.00
27705;BME280;15109;50.992;6.918;2022-08-18T00:20:57;100637.25;;;20.06;100.00
27705;BME280;15109;50.992;6.918;2022-08-18T00:24:18;100639.09;;;20.00;100.00
27705;BME280;15109;50.992;6.918;2022-08-18T00:27:39;100641.19;;;19.93;100.00
27705;BME280;15109;50.992;6.918;2022-08-18T00:31:01;100635.78;;;19.86;100.00
27705;BME280;15109;50.992;6.918;2022-08-18T00:34:22;100628.06;;;19.88;100.00
27705;BME280;15109;50.992;6.918;2022-08-18T00:37:44;100618.31;;;19.86;100.00
27705;BME280;15109;50.992;6.918;2022-08-18T00:41:05;100631.59;;;19.84;100.00
27705;BME280;15109;50.992;6.918;2022-08-18T00:44:27;100624.78;;;19.75;100.00
27705;BME280;15109;50.992;6.918;2022-08-18T00:47:48;100627.28;;;19.76;100.00
27705;BME280;15109;50.992;6.918;2022-08-18T00:51:13;100629.38;;;19.69;100.00
27705;BME280;15109;50.992;6.918;2022-08-18T00:54:36;100624.56;;;19.65;100.00
27705;BME280;15109;50.992;6.918;2022-08-18T00:58:02;100620.59;;;19.61;100.00
27705;BME280;15109;50.992;6.918;2022-08-18T01:01:29;100614.72;;;19.57;100.00
27705;BME280;15109;50.992;6.918;2022-08-18T01:04:56;100611.34;;;19.55;100.00
27705;BME280;15109;50.992;6.918;2022-08-18T01:08:17;100618.00;;;19.54;100.00
27705;BME280;15109;50.992;6.918;2022-08-18T01:11:39;100627.91;;;19.50;100.00
27705;BME280;15109;50.992;6.918;2022-08-18T01:15:01;100627.31;;;19.48;100.00
27705;BME280;15109;50.992;6.918;2022-08-18T01:18:22;100634.44;;;19.44;100.00
27705;BME280;15109;50.992;6.918;2022-08-18T01:22:10;100642.25;;;19.47;100.00
27705;BME280;15109;50.992;6.918;2022-08-18T01:25:33;100639.75;;;19.45;100.00
27705;BME280;15109;50.992;6.918;2022-08-18T01:29:12;100649.72;;;19.46;100.00
27705;BME280;15109;50.992;6.918;2022-08-18T01:32:33;100653.22;;;19.54;100.00
27705;BME280;15109;50.992;6.918;2022-08-18T01:35:54;100647.78;;;19.59;100.00
27705;BME280;15109;50.992;6.918;2022-08-18T01:39:18;100649.31;;;19.55;100.00
27705;BME280;15109;50.992;6.918;2022-08-18T01:42:39;100666.13;;;19.48;100.00
27705;BME280;15109;50.992;6.918;2022-08-18T01:46:03;100667.91;;;19.42;100.00
27705;BME280;15109;50.992;6.918;2022-08-18T01:49:25;100666.72;;;19.38;100.00
27705;BME280;15109;50.992;6.918;2022-08-18T01:52:48;100676.50;;;19.29;100.00
27705;BME280;15109;50.992;6.918;2022-08-18T01:56:09;100679.44;;;19.23;100.00
27705;BME280;15109;50.992;6.918;2022-08-18T01:59:30;100672.81;;;19.24;100.00
27705;BME280;15109;50.992;6.918;2022-08-18T02:02:51;100670.75;;;19.19;100.00
27705;BME280;15109;50.992;6.918;2022-08-18T02:06:18;100661.72;;;19.12;100.00
27705;BME280;15109;50.992;6.918;2022-08-18T02:09:41;100662.69;;;19.18;100.00
27705;BME280;15109;50.992;6.918;2022-08-18T02:13:02;100652.44;;;19.18;100.00
27705;BME280;15109;50.992;6.918;2022-08-18T02:16:23;100658.84;;;19.19;100.00
27705;BME280;15109;50.992;6.918;2022-08-18T02:19:46;100663.66;;;19.23;100.00
27705;BME280;15109;50.992;6.918;2022-08-18T02:23:08;100661.44;;;19.25;100.00
27705;BME280;15109;50.992;6.918;2022-08-18T02:26:29;100660.38;;;19.26;100.00
27705;BME280;15109;50.992;6.918;2022-08-18T02:29:50;100672.53;;;19.25;100.00
27705;BME280;15109;50.992;6.918;2022-08-18T02:33:11;100668.00;;;19.19;100.00
27705;BME280;15109;50.992;6.918;2022-08-18T02:36:32;100664.03;;;19.15;100.00
27705;BME280;15109;50.992;6.918;2022-08-18T02:39:53;100660.06;;;19.11;100.00
27705;BME280;15109;50.992;6.918;2022-08-18T02:43:14;100650.16;;;19.03;100.00
27705;BME280;15109;50.992;6.918;2022-08-18T02:46:37;100650.91;;;18.99;100.00
27705;BME280;15109;50.992;6.918;2022-08-18T02:49:58;100656.94;;;18.96;100.00
27705;BME280;15109;50.992;6.918;2022-08-18T02:53:19;100650.94;;;18.87;100.00
27705;BME280;15109;50.992;6.918;2022-08-18T02:56:43;100648.03;;;18.82;100.00
27705;BME280;15109;50.992;6.918;2022-08-18T03:00:05;100645.53;;;18.81;100.00
27705;BME280;15109;50.992;6.918;2022-08-18T03:03:27;100644.31;;;18.77;100.00
27705;BME280;15109;50.992;6.918;2022-08-18T03:06:53;100646.84;;;18.78;100.00
27705;BME280;15109;50.992;6.918;2022-08-18T03:10:14;100652.50;;;18.83;100.00
27705;BME280;15109;50.992;6.918;2022-08-18T03:13:36;100656.25;;;18.89;100.00
27705;BME280;15109;50.992;6.918;2022-08-18T03:16:57;100648.16;;;18.87;100.00
27705;BME280;15109;50.992;6.918;2022-08-18T03:20:19;100645.63;;;18.86;100.00
27705;BME280;15109;50.992;6.918;2022-08-18T03:23:41;100651.66;;;18.83;100.00
27705;BME280;15109;50.992;6.918;2022-08-18T03:27:04;100654.53;;;18.88;100.00
27705;BME280;15109;50.992;6.918;2022-08-18T03:30:26;100655.28;;;18.83;100.00
27705;BME280;15109;50.992;6.918;2022-08-18T03:33:48;100659.25;;;18.87;100.00
27705;BME280;15109;50.992;6.918;2022-08-18T03:37:09;100660.56;;;18.85;100.00
27705;BME280;15109;50.992;6.918;2022-08-18T03:40:30;100648.75;;;18.78;100.00
27705;BME280;15109;50.992;6.918;2022-08-18T03:43:52;100651.19;;;18.63;100.00
27705;BME280;15109;50.992;6.918;2022-08-18T03:47:13;100651.03;;;18.46;100.00
27705;BME280;15109;50.992;6.918;2022-08-18T03:50:35;100661.50;;;18.44;100.00
27705;BME280;15109;50.992;6.918;2022-08-18T03:53:57;100670.66;;;18.44;100.00
27705;BME280;15109;50.992;6.918;2022-08-18T03:57:21;100673.56;;;18.49;100.00
27705;BME280;15109;50.992;6.918;2022-08-18T04:00:42;100677.63;;;18.47;100.00
27705;BME280;15109;50.992;6.918;2022-08-18T04:04:05;100679.31;;;18.48;100.00
27705;BME280;15109;50.992;6.918;2022-08-18T04:07:26;100677.16;;;18.50;100.00
27705;BME280;15109;50.992;6.918;2022-08-18T04:10:47;100675.63;;;18.54;100.00
27705;BME280;15109;50.992;6.918;2022-08-18T04:14:13;100669.59;;;18.57;100.00
27705;BME280;15109;50.992;6.918;2022-08-18T04:17:35;100679.34;;;18.59;100.00
27705;BME280;15109;50.992;6.918;2022-08-18T04:21:00;100666.34;;;18.60;100.00
27705;BME280;15109;50.992;6.918;2022-08-18T04:24:22;100663.56;;;18.60;100.00
27705;BME280;15109;50.992;6.918;2022-08-18T04:27:43;100656.38;;;18.59;100.00
27705;BME280;15109;50.992;6.918;2022-08-18T04:31:10;100669.72;;;18.62;100.00
27705;BME280;15109;50.992;6.918;2022-08-18T04:34:32;100678.16;;;18.67;100.00
27705;BME280;15109;50.992;6.918;2022-08-18T04:37:54;100677.69;;;18.70;100.00
27705;BME280;15109;50.992;6.918;2022-08-18T04:41:15;100686.84;;;18.71;100.00
27705;BME280;15109;50.992;6.918;2022-08-18T04:44:37;100687.56;;;18.66;100.00
27705;BME280;15109;50.992;6.918;2022-08-18T04:47:58;100686.72;;;18.66;100.00
27705;BME280;15109;50.992;6.918;2022-08-18T04:51:19;100684.56;;;18.68;100.00
27705;BME280;15109;50.992;6.918;2022-08-18T04:54:40;100681.78;;;18.68;100.00
27705;BME280;15109;50.992;6.918;2022-08-18T04:58:02;100679.38;;;18.71;100.00
27705;BME280;15109;50.992;6.918;2022-08-18T05:01:28;100686.13;;;18.75;100.00
27705;BME280;15109;50.992;6.918;2022-08-18T05:04:50;100688.41;;;18.78;100.00
27705;BME280;15109;50.992;6.918;2022-08-18T05:08:11;100698.53;;;18.84;100.00
27705;BME280;15109;50.992;6.918;2022-08-18T05:11:34;100698.25;;;18.86;100.00
27705;BME280;15109;50.992;6.918;2022-08-18T05:14:55;100700.56;;;18.89;100.00
27705;BME280;15109;50.992;6.918;2022-08-18T05:18:19;100695.03;;;18.89;100.00
27705;BME280;15109;50.992;6.918;2022-08-18T05:21:44;100704.66;;;18.98;100.00
27705;BME280;15109;50.992;6.918;2022-08-18T05:25:09;100698.00;;;18.99;100.00
27705;BME280;15109;50.992;6.918;2022-08-18T05:28:31;100699.22;;;19.03;100.00
27705;BME280;15109;50.992;6.918;2022-08-18T05:31:54;100693.44;;;19.04;100.00
27705;BME280;15109;50.992;6.918;2022-08-18T05:35:24;100696.44;;;19.15;100.00
27705;BME280;15109;50.992;6.918;2022-08-18T05:42:21;100701.72;;;19.16;100.00
27705;BME280;15109;50.992;6.918;2022-08-18T05:45:42;100705.13;;;19.18;100.00
27705;BME280;15109;50.992;6.918;2022-08-18T05:49:04;100698.97;;;19.28;100.00
27705;BME280;15109;50.992;6.918;2022-08-18T05:56:05;100696.03;;;19.34;100.00
27705;BME280;15109;50.992;6.918;2022-08-18T05:59:46;100705.53;;;19.38;100.00
27705;BME280;15109;50.992;6.918;2022-08-18T06:03:19;100702.53;;;19.40;100.00
27705;BME280;15109;50.992;6.918;2022-08-18T06:06:41;100707.25;;;19.39;100.00
27705;BME280;15109;50.992;6.918;2022-08-18T06:10:06;100711.13;;;19.50;100.00
27705;BME280;15109;50.992;6.918;2022-08-18T06:13:27;100710.13;;;19.56;100.00
27705;BME280;15109;50.992;6.918;2022-08-18T06:20:39;100722.16;;;19.62;100.00
27705;BME280;15109;50.992;6.918;2022-08-18T06:42:46;100740.34;;;19.69;100.00
27705;BME280;15109;50.992;6.918;2022-08-18T06:46:13;100743.34;;;19.68;100.00
27705;BME280;15109;50.992;6.918;2022-08-18T06:53:03;100745.41;;;19.72;100.00
27705;BME280;15109;50.992;6.918;2022-08-18T07:00:07;100738.88;;;19.78;100.00
27705;BME280;15109;50.992;6.918;2022-08-18T07:06:56;100744.63;;;19.88;100.00
27705;BME280;15109;50.992;6.918;2022-08-18T07:13:40;100743.06;;;19.92;100.00
27705;BME280;15109;50.992;6.918;2022-08-18T07:17:11;100734.97;;;19.91;100.00
27705;BME280;15109;50.992;6.918;2022-08-18T07:20:44;100724.47;;;19.93;100.00
27705;BME280;15109;50.992;6.918;2022-08-18T07:27:45;100715.47;;;20.03;100.00
27705;BME280;15109;50.992;6.918;2022-08-18T07:34:53;100705.56;;;20.07;100.00
27705;BME280;15109;50.992;6.918;2022-08-18T07:42:00;100715.66;;;20.13;100.00
27705;BME280;15109;50.992;6.918;2022-08-18T07:48:51;100725.09;;;20.12;100.00
27705;BME280;15109;50.992;6.918;2022-08-18T07:52:25;100732.66;;;20.16;100.00
27705;BME280;15109;50.992;6.918;2022-08-18T07:55:54;100741.00;;;20.16;100.00
27705;BME280;15109;50.992;6.918;2022-08-18T07:59:30;100749.59;;;20.15;100.00
27705;BME280;15109;50.992;6.918;2022-08-18T08:06:41;100744.78;;;20.38;100.00
27705;BME280;15109;50.992;6.918;2022-08-18T08:10:30;100741.25;;;20.43;100.00
27705;BME280;15109;50.992;6.918;2022-08-18T08:14:58;100750.53;;;20.49;100.00
27705;BME280;15109;50.992;6.918;2022-08-18T08:18:09;100749.78;;;20.53;100.00
27705;BME280;15109;50.992;6.918;2022-08-18T08:21:32;100744.28;;;20.58;100.00
27705;BME280;15109;50.992;6.918;2022-08-18T08:25:04;100753.22;;;20.60;100.00
27705;BME280;15109;50.992;6.918;2022-08-18T08:32:22;100755.31;;;20.70;100.00
27705;BME280;15109;50.992;6.918;2022-08-18T08:35:53;100767.44;;;20.64;100.00
27705;BME280;15109;50.992;6.918;2022-08-18T08:43:14;100768.03;;;20.66;100.00
27705;BME280;15109;50.992;6.918;2022-08-18T08:47:06;100766.16;;;20.71;100.00
27705;BME280;15109;50.992;6.918;2022-08-18T08:50:33;100764.56;;;20.75;100.00
27705;BME280;15109;50.992;6.918;2022-08-18T08:54:20;100778.06;;;20.83;100.00
27705;BME280;15109;50.992;6.918;2022-08-18T08:57:50;100783.44;;;20.90;100.00
27705;BME280;15109;50.992;6.918;2022-08-18T09:01:26;100775.78;;;20.97;100.00
27705;BME280;15109;50.992;6.918;2022-08-18T09:05:02;100771.91;;;20.98;100.00
27705;BME280;15109;50.992;6.918;2022-08-18T09:12:24;100761.94;;;21.02;100.00
27705;BME280;15109;50.992;6.918;2022-08-18T09:23:09;100760.88;;;21.20;100.00
27705;BME280;15109;50.992;6.918;2022-08-18T09:26:42;100756.22;;;21.25;100.00
27705;BME280;15109;50.992;6.918;2022-08-18T09:30:06;100762.06;;;21.46;100.00
27705;BME280;15109;50.992;6.918;2022-08-18T09:37:13;100763.91;;;21.57;100.00
27705;BME280;15109;50.992;6.918;2022-08-18T09:40:53;100765.41;;;21.64;100.00
27705;BME280;15109;50.992;6.918;2022-08-18T09:51:36;100751.56;;;21.69;100.00
27705;BME280;15109;50.992;6.918;2022-08-18T09:58:46;100772.31;;;21.84;100.00
27705;BME280;15109;50.992;6.918;2022-08-18T10:02:05;100783.06;;;21.97;100.00
27705;BME280;15109;50.992;6.918;2022-08-18T10:05:30;100770.66;;;22.04;100.00
27705;BME280;15109;50.992;6.918;2022-08-18T10:09:03;100778.84;;;22.16;100.00
27705;BME280;15109;50.992;6.918;2022-08-18T10:19:52;100763.34;;;22.52;100.00
27705;BME280;15109;50.992;6.918;2022-08-18T10:31:04;100755.00;;;22.52;100.00
27705;BME280;15109;50.992;6.918;2022-08-18T10:41:35;100735.56;;;22.94;100.00
27705;BME280;15109;50.992;6.918;2022-08-18T10:45:29;100731.97;;;22.98;100.00
27705;BME280;15109;50.992;6.918;2022-08-18T10:49:00;100734.81;;;23.08;100.00
27705;BME280;15109;50.992;6.918;2022-08-18T10:52:53;100734.81;;;23.03;100.00
27705;BME280;15109;50.992;6.918;2022-08-18T10:56:30;100725.44;;;23.20;100.00
27705;BME280;15109;50.992;6.918;2022-08-18T11:00:09;100724.03;;;23.22;100.00
27705;BME280;15109;50.992;6.918;2022-08-18T11:07:23;100716.75;;;23.16;100.00
27705;BME280;15109;50.992;6.918;2022-08-18T11:10:47;100718.19;;;23.24;100.00
27705;BME280;15109;50.992;6.918;2022-08-18T11:14:35;100722.16;;;23.33;100.00
27705;BME280;15109;50.992;6.918;2022-08-18T11:18:06;100722.13;;;23.28;100.00
27705;BME280;15109;50.992;6.918;2022-08-18T11:21:37;100721.56;;;23.31;100.00
27705;BME280;15109;50.992;6.918;2022-08-18T11:25:18;100715.38;;;23.19;100.00
27705;BME280;15109;50.992;6.918;2022-08-18T11:28:39;100709.88;;;23.34;100.00
27705;BME280;15109;50.992;6.918;2022-08-18T11:35:51;100703.59;;;23.54;100.00
27705;BME280;15109;50.992;6.918;2022-08-18T11:39:13;100700.00;;;23.63;100.00
27705;BME280;15109;50.992;6.918;2022-08-18T11:42:38;100692.47;;;23.74;100.00
27705;BME280;15109;50.992;6.918;2022-08-18T11:46:29;100700.00;;;23.73;100.00
27705;BME280;15109;50.992;6.918;2022-08-18T11:50:18;100699.78;;;23.80;100.00
27705;BME280;15109;50.992;6.918;2022-08-18T12:04:56;100688.91;;;23.88;100.00
27705;BME280;15109;50.992;6.918;2022-08-18T12:08:29;100693.66;;;23.93;100.00
27705;BME280;15109;50.992;6.918;2022-08-18T12:11:57;100700.63;;;23.80;100.00
27705;BME280;15109;50.992;6.918;2022-08-18T12:15:31;100703.97;;;23.87;100.00
27705;BME280;15109;50.992;6.918;2022-08-18T12:18:52;100720.78;;;24.03;100.00
27705;BME280;15109;50.992;6.918;2022-08-18T12:22:23;100738.41;;;24.13;100.00
27705;BME280;15109;50.992;6.918;2022-08-18T12:25:44;100739.84;;;24.21;100.00
27705;BME280;15109;50.992;6.918;2022-08-18T12:29:05;100754.66;;;24.21;100.00
27705;BME280;15109;50.992;6.918;2022-08-18T12:32:28;100773.41;;;24.31;100.00
27705;BME280;15109;50.992;6.918;2022-08-18T12:35:50;100784.28;;;24.22;100.00
27705;BME280;15109;50.992;6.918;2022-08-18T12:39:11;100775.91;;;24.22;100.00
27705;BME280;15109;50.992;6.918;2022-08-18T12:42:33;100762.81;;;24.28;100.00
27705;BME280;15109;50.992;6.918;2022-08-18T12:45:54;100736.81;;;24.32;100.00
27705;BME280;15109;50.992;6.918;2022-08-18T12:49:18;100732.59;;;24.30;100.00
27705;BME280;15109;50.992;6.918;2022-08-18T12:52:39;100723.41;;;24.45;100.00
27705;BME280;15109;50.992;6.918;2022-08-18T12:56:01;100712.50;;;24.58;100.00
27705;BME280;15109;50.992;6.918;2022-08-18T12:59:22;100697.13;;;24.56;100.00
27705;BME280;15109;50.992;6.918;2022-08-18T13:02:44;100696.00;;;24.57;100.00
27705;BME280;15109;50.992;6.918;2022-08-18T13:06:05;100687.03;;;24.60;100.00
27705;BME280;15109;50.992;6.918;2022-08-18T13:09:30;100693.47;;;24.60;100.00
27705;BME280;15109;50.992;6.918;2022-08-18T13:12:52;100687.34;;;24.43;100.00
27705;BME280;15109;50.992;6.918;2022-08-18T13:16:14;100674.50;;;24.37;100.00
27705;BME280;15109;50.992;6.918;2022-08-18T13:19:35;100660.50;;;24.32;100.00
27705;BME280;15109;50.992;6.918;2022-08-18T13:22:56;100656.03;;;24.36;100.00
27705;BME280;15109;50.992;6.918;2022-08-18T13:26:28;100642.06;;;24.46;100.00
27705;BME280;15109;50.992;6.918;2022-08-18T13:29:50;100646.53;;;24.52;100.00
27705;BME280;15109;50.992;6.918;2022-08-18T13:33:11;100640.63;;;24.64;100.00
27705;BME280;15109;50.992;6.918;2022-08-18T13:36:32;100647.06;;;24.69;100.00
27705;BME280;15109;50.992;6.918;2022-08-18T13:40:07;100649.31;;;24.67;100.00
27705;BME280;15109;50.992;6.918;2022-08-18T13:43:37;100650.97;;;24.78;100.00
27705;BME280;15109;50.992;6.918;2022-08-18T13:47:05;100643.16;;;24.65;100.00
27705;BME280;15109;50.992;6.918;2022-08-18T13:50:27;100641.47;;;24.69;100.00
27705;BME280;15109;50.992;6.918;2022-08-18T13:53:48;100647.63;;;24.71;100.00
27705;BME280;15109;50.992;6.918;2022-08-18T13:57:09;100654.06;;;24.67;100.00
27705;BME280;15109;50.992;6.918;2022-08-18T14:00:32;100643.41;;;24.64;100.00
27705;BME280;15109;50.992;6.918;2022-08-18T14:03:54;100651.84;;;24.59;100.00
27705;BME280;15109;50.992;6.918;2022-08-18T14:07:15;100665.53;;;24.55;100.00
27705;BME280;15109;50.992;6.918;2022-08-18T14:10:37;100675.59;;;24.51;100.00
27705;BME280;15109;50.992;6.918;2022-08-18T14:13:59;100678.38;;;24.56;100.00
27705;BME280;15109;50.992;6.918;2022-08-18T14:17:22;100677.53;;;24.61;100.00
27705;BME280;15109;50.992;6.918;2022-08-18T14:20:43;100666.94;;;24.63;100.00
27705;BME280;15109;50.992;6.918;2022-08-18T14:24:23;100652.38;;;24.66;100.00
27705;BME280;15109;50.992;6.918;2022-08-18T14:28:03;100660.19;;;24.69;100.00
27705;BME280;15109;50.992;6.918;2022-08-18T14:31:24;100657.97;;;24.76;100.00
27705;BME280;15109;50.992;6.918;2022-08-18T14:34:45;100659.34;;;24.78;100.00
27705;BME280;15109;50.992;6.918;2022-08-18T14:38:06;100658.53;;;24.88;100.00
27705;BME280;15109;50.992;6.918;2022-08-18T14:41:28;100662.69;;;25.01;100.00
27705;BME280;15109;50.992;6.918;2022-08-18T14:44:51;100665.75;;;25.09;100.00
27705;BME280;15109;50.992;6.918;2022-08-18T14:48:13;100657.38;;;25.09;100.00
27705;BME280;15109;50.992;6.918;2022-08-18T14:51:35;100644.19;;;25.15;100.00
27705;BME280;15109;50.992;6.918;2022-08-18T14:54:56;100643.59;;;25.28;100.00
27705;BME280;15109;50.992;6.918;2022-08-18T14:58:29;100643.78;;;25.42;100.00
27705;BME280;15109;50.992;6.918;2022-08-18T15:01:50;100634.59;;;25.36;100.00
27705;BME280;15109;50.992;6.918;2022-08-18T15:05:12;100645.78;;;25.41;100.00
27705;BME280;15109;50.992;6.918;2022-08-18T15:08:34;100631.50;;;25.38;100.00
27705;BME280;15109;50.992;6.918;2022-08-18T15:11:57;100648.59;;;25.36;100.00
27705;BME280;15109;50.992;6.918;2022-08-18T15:15:18;100647.50;;;25.32;100.00
27705;BME280;15109;50.992;6.918;2022-08-18T15:18:44;100644.13;;;25.35;100.00
27705;BME280;15109;50.992;6.918;2022-08-18T15:22:06;100642.94;;;25.46;100.00
27705;BME280;15109;50.992;6.918;2022-08-18T15:25:46;100636.22;;;25.57;100.00
27705;BME280;15109;50.992;6.918;2022-08-18T15:29:09;100631.72;;;25.61;100.00
27705;BME280;15109;50.992;6.918;2022-08-18T15:32:32;100631.22;;;25.39;100.00
27705;BME280;15109;50.992;6.918;2022-08-18T15:35:53;100632.88;;;25.45;100.00
27705;BME280;15109;50.992;6.918;2022-08-18T15:39:15;100628.97;;;25.41;100.00
27705;BME280;15109;50.992;6.918;2022-08-18T15:42:39;100630.66;;;25.37;100.00
27705;BME280;15109;50.992;6.918;2022-08-18T15:46:02;100633.75;;;25.41;100.00
27705;BME280;15109;50.992;6.918;2022-08-18T15:49:24;100628.63;;;25.53;100.00
27705;BME280;15109;50.992;6.918;2022-08-18T15:52:50;100628.44;;;25.34;100.00
27705;BME280;15109;50.992;6.918;2022-08-18T15:56:19;100626.50;;;25.24;100.00
27705;BME280;15109;50.992;6.918;2022-08-18T15:59:41;100623.44;;;25.21;100.00
27705;BME280;15109;50.992;6.918;2022-08-18T16:03:05;100620.66;;;25.21;100.00
27705;BME280;15109;50.992;6.918;2022-08-18T16:06:27;100627.31;;;25.35;100.00
27705;BME280;15109;50.992;6.918;2022-08-18T16:09:48;100611.03;;;25.42;100.00
27705;BME280;15109;50.992;6.918;2022-08-18T16:13:10;100618.34;;;25.33;100.00
27705;BME280;15109;50.992;6.918;2022-08-18T16:16:31;100612.47;;;25.35;100.00
27705;BME280;15109;50.992;6.918;2022-08-18T16:19:52;100614.44;;;25.34;100.00
27705;BME280;15109;50.992;6.918;2022-08-18T16:23:13;100603.81;;;25.31;100.00
27705;BME280;15109;50.992;6.918;2022-08-18T16:26:35;100605.19;;;25.34;100.00
27705;BME280;15109;50.992;6.918;2022-08-18T16:29:56;100614.19;;;25.25;100.00
27705;BME280;15109;50.992;6.918;2022-08-18T16:33:17;100608.34;;;25.22;100.00
27705;BME280;15109;50.992;6.918;2022-08-18T16:36:38;100608.34;;;25.17;100.00
27705;BME280;15109;50.992;6.918;2022-08-18T16:39:59;100614.53;;;25.14;100.00
27705;BME280;15109;50.992;6.918;2022-08-18T16:43:20;100605.88;;;25.05;100.00
27705;BME280;15109;50.992;6.918;2022-08-18T16:46:42;100614.56;;;24.99;100.00
27705;BME280;15109;50.992;6.918;2022-08-18T16:50:11;100611.50;;;24.95;100.00
27705;BME280;15109;50.992;6.918;2022-08-18T16:53:32;100601.75;;;24.93;100.00
27705;BME280;15109;50.992;6.918;2022-08-18T16:56:54;100598.69;;;24.89;100.00
27705;BME280;15109;50.992;6.918;2022-08-18T17:00:15;100600.06;;;24.87;100.00
27705;BME280;15109;50.992;6.918;2022-08-18T17:03:55;100588.31;;;24.79;100.00
27705;BME280;15109;50.992;6.918;2022-08-18T17:07:29;100589.75;;;24.72;100.00
27705;BME280;15109;50.992;6.918;2022-08-18T17:10:51;100590.88;;;24.66;100.00
27705;BME280;15109;50.992;6.918;2022-08-18T17:14:12;100592.81;;;24.60;100.00
27705;BME280;15109;50.992;6.918;2022-08-18T17:17:33;100590.88;;;24.56;100.00
27705;BME280;15109;50.992;6.918;2022-08-18T17:20:56;100595.34;;;24.47;100.00
27705;BME280;15109;50.992;6.918;2022-08-18T17:24:17;100592.31;;;24.33;100.00
27705;BME280;15109;50.992;6.918;2022-08-18T17:27:42;100590.38;;;24.28;100.00
27705;BME280;15109;50.992;6.918;2022-08-18T17:31:05;100588.38;;;24.34;100.00
27705;BME280;15109;50.992;6.918;2022-08-18T17:34:31;100597.06;;;24.27;100.00
27705;BME280;15109;50.992;6.918;2022-08-18T17:37:55;100594.84;;;24.24;100.00
27705;BME280;15109;50.992;6.918;2022-08-18T17:41:19;100595.91;;;24.13;100.00
27705;BME280;15109;50.992;6.918;2022-08-18T17:44:43;100587.25;;;24.10;100.00
27705;BME280;15109;50.992;6.918;2022-08-18T17:48:21;100590.34;;;23.98;100.00
27705;BME280;15109;50.992;6.918;2022-08-18T17:51:51;100590.59;;;23.91;100.00
27705;BME280;15109;50.992;6.918;2022-08-18T17:55:24;100590.31;;;23.88;100.00
27705;BME280;15109;50.992;6.918;2022-08-18T17:58:53;100583.88;;;23.82;100.00
27705;BME280;15109;50.992;6.918;2022-08-18T18:02:25;100586.66;;;23.77;100.00
27705;BME280;15109;50.992;6.918;2022-08-18T18:05:50;100584.72;;;23.73;100.00
27705;BME280;15109;50.992;6.918;2022-08-18T18:12:42;100574.63;;;23.62;100.00
27705;BME280;15109;50.992;6.918;2022-08-18T18:16:29;100579.34;;;23.56;100.00
27705;BME280;15109;50.992;6.918;2022-08-18T18:20:21;100582.97;;;23.46;100.00
27705;BME280;15109;50.992;6.918;2022-08-18T18:23:51;100576.50;;;23.41;100.00
27705;BME280;15109;50.992;6.918;2022-08-18T18:27:51;100582.63;;;23.33;100.00
27705;BME280;15109;50.992;6.918;2022-08-18T18:31:26;100588.75;;;23.25;100.00
27705;BME280;15109;50.992;6.918;2022-08-18T18:35:03;100589.53;;;23.15;100.00
27705;BME280;15109;50.992;6.918;2022-08-18T18:38:34;100583.38;;;23.08;100.00
27705;BME280;15109;50.992;6.918;2022-08-18T18:42:09;100590.03;;;23.02;100.00
27705;BME280;15109;50.992;6.918;2022-08-18T18:45:34;100592.25;;;22.95;100.00
27705;BME280;15109;50.992;6.918;2022-08-18T18:49:05;100588.00;;;22.87;100.00
27705;BME280;15109;50.992;6.918;2022-08-18T18:56:42;100594.88;;;22.70;100.00
27705;BME280;15109;50.992;6.918;2022-08-18T19:00:31;100597.88;;;22.63;100.00
27705;BME280;15109;50.992;6.918;2022-08-18T19:04:03;100597.88;;;22.63;100.00
27705;BME280;15109;50.992;6.918;2022-08-18T19:07:29;100601.16;;;22.55;100.00
27705;BME280;15109;50.992;6.918;2022-08-18T19:11:00;100601.13;;;22.50;100.00
27705;BME280;15109;50.992;6.918;2022-08-18T19:14:37;100607.00;;;22.53;100.00
27705;BME280;15109;50.992;6.918;2022-08-18T19:21:30;100607.50;;;22.45;100.00
27705;BME280;15109;50.992;6.918;2022-08-18T19:24:58;100606.09;;;22.43;100.00
27705;BME280;15109;50.992;6.918;2022-08-18T19:28:37;100611.38;;;22.44;100.00
27705;BME280;15109;50.992;6.918;2022-08-18T19:32:14;100609.19;;;22.46;100.00
27705;BME280;15109;50.992;6.918;2022-08-18T19:35:47;100613.91;;;22.46;100.00
27705;BME280;15109;50.992;6.918;2022-08-18T19:39:25;100609.19;;;22.46;100.00
27705;BME280;15109;50.992;6.918;2022-08-18T19:46:42;100615.03;;;22.45;100.00
27705;BME280;15109;50.992;6.918;2022-08-18T19:50:14;100618.91;;;22.44;100.00
27705;BME280;15109;50.992;6.918;2022-08-18T19:54:09;100619.44;;;22.41;100.00
27705;BME280;15109;50.992;6.918;2022-08-18T20:01:33;100617.75;;;22.40;100.00
27705;BME280;15109;50.992;6.918;2022-08-18T20:09:18;100624.97;;;22.36;100.00
27705;BME280;15109;50.992;6.918;2022-08-18T20:17:16;100624.97;;;22.36;100.00
27705;BME280;15109;50.992;6.918;2022-08-18T20:20:37;100624.13;;;22.35;100.00
27705;BME280;15109;50.992;6.918;2022-08-18T20:27:30;100617.97;;;22.28;100.00
27705;BME280;15109;50.992;6.918;2022-08-18T20:31:11;100631.53;;;22.20;100.00